This is the latest recevied weather packets stored in our database for station/object W2EH. If no packets are shown the sender has not sent any weather packets the latest 10 day(s).
| Time | Temp. | Humidity | Pressure | Rain* | Wind** | Luminosity | Snow |
|---|---|---|---|---|---|---|---|
| 1778086877 | 18.89° C | 79% | 1010.7 hPa | 0 mm | - | 274 W/m² | - |
| 1778086576 | 18.33° C | 81% | 1011 hPa | 0 mm | - | 223 W/m² | - |
| 1778086271 | 18.33° C | 80% | 1011.1 hPa | 0 mm | - | 306 W/m² | - |
| 1778085969 | 18.33° C | 79% | 1011 hPa | 0 mm | - | 261 W/m² | - |
| 1778085666 | 18.33° C | 82% | 1011.4 hPa | 0 mm | - | 263 W/m² | - |
| 1778085361 | 17.22° C | 84% | 1011.2 hPa | 0 mm | - | 235 W/m² | - |
| 1778085057 | 17.22° C | 85% | 1011.6 hPa | 0 mm | - | 323 W/m² | - |
| 1778084754 | 16.67° C | 89% | 1012 hPa | 0 mm | - | 340 W/m² | - |
| 1778084451 | 15.56° C | 91% | 1011.1 hPa | 0 mm | - | 271 W/m² | - |
| 1778084149 | 15.56° C | 91% | 1011.5 hPa | 0 mm | - | 55 W/m² | - |
| 1778083845 | 15.56° C | 91% | 1011.9 hPa | 0 mm | - | 31 W/m² | - |
| 1778083543 | 15.56° C | 91% | 1012.2 hPa | 0 mm | - | 28 W/m² | - |
| 1778083240 | 15.56° C | 91% | 1012.7 hPa | 0 mm | - | 26 W/m² | - |
| 1778082938 | 15.56° C | 92% | 1012.6 hPa | 0 mm | - | 11 W/m² | - |
| 1778081829 | 16.11° C | 92% | 1012.3 hPa | 0 mm | - | 12 W/m² | - |
| 1778081527 | 16.67° C | 91% | 1012.1 hPa | 0 mm | - | 11 W/m² | - |
| 1778081223 | 16.67° C | 91% | 1012.2 hPa | 0 mm | - | 16 W/m² | - |
| 1778080921 | 16.67° C | 91% | 1012.1 hPa | 0 mm | - | 18 W/m² | - |
| 1778080620 | 17.22° C | 91% | 1012 hPa | 0 mm | - | 15 W/m² | - |
| 1778080316 | 17.22° C | 91% | 1011.6 hPa | 0 mm | - | 15 W/m² | - |
| 1778080013 | 17.22° C | 91% | 1011.3 hPa | 0 mm | - | 27 W/m² | - |
| 1778079710 | 17.22° C | 91% | 1010.8 hPa | 0 mm | - | 35 W/m² | - |
| 1778079407 | 17.78° C | 91% | 1011 hPa | 0 mm | - | 21 W/m² | - |
| 1778079103 | 17.78° C | 90% | 1010.8 hPa | 0 mm | - | 21 W/m² | - |
| 1778078801 | 17.78° C | 90% | 1010.4 hPa | 0 mm | - | 20 W/m² | - |
* Rain latest hour (hover to see other rain measurements)
** Current wind speed in m/s (hover to see current wind gust speed)